Terminal Aerodrome Forecast
Issued by NWS

Home | Current Version | Previous Version | Text Only | Print | Product List | Glossary On
Versions: 1 2 3 4 5 6 7 8 9 10 11 12 13 14
000
FTUS42 KGSP 311000 AAB
TAFGMU
TAF AMD
KGMU 311041Z 3111/0106 22003KT P6SM VCSH BKN040
      TEMPO 3111/3112 6SM -SHRA BR SCT007
     FM311400 21004KT P6SM BKN090
     FM311700 20006KT P6SM BKN120
     FM311900 20007KT P6SM SCT120=

USA.gov is the U.S. government's official web portal to all federal, state and local government web resources and services.